createdAt,value
2018-11-07T00:09:33.882Z,212.00
2018-11-07T00:10:33.872Z,212.00
2018-11-07T00:14:15.424Z,220.00
2018-11-07T00:15:03.880Z,224.00
2018-11-07T00:21:29.142Z,236.00
2018-11-07T00:22:29.101Z,244.00
2018-11-07T00:33:35.232Z,248.00
2018-11-07T00:34:34.878Z,252.00
2018-11-07T00:49:16.203Z,308.00
2018-11-07T00:49:49.782Z,312.00
2018-11-07T00:53:38.094Z,336.00
2018-11-07T00:54:15.176Z,344.00
2018-11-07T00:56:43.643Z,336.00
2018-11-07T00:57:08.553Z,388.00
2018-11-07T01:07:10.347Z,420.00
2018-11-07T01:07:42.119Z,448.00
2018-11-07T01:11:28.670Z,532.00
2018-11-07T01:12:07.256Z,540.00
2018-11-07T01:14:22.160Z,544.00
2018-11-07T01:15:00.933Z,548.00
2018-11-07T01:18:25.999Z,560.00
2018-11-07T01:19:25.995Z,564.00
2018-11-07T01:22:52.346Z,480.00
2018-11-07T01:23:51.462Z,488.00
2018-11-07T01:30:40.079Z,532.00
2018-11-07T01:31:20.999Z,524.00
2018-11-07T01:42:26.944Z,556.00
2018-11-07T01:43:26.863Z,548.00
2018-11-07T01:46:52.674Z,480.00
2018-11-07T01:50:24.738Z,424.00
2018-11-07T01:52:18.716Z,408.00
2018-11-07T01:53:17.793Z,408.00
2018-11-07T01:56:54.364Z,376.00
2018-11-07T01:57:43.825Z,372.00
2018-11-07T02:02:40.785Z,364.00
2018-11-07T02:03:40.816Z,348.00
2018-11-07T02:07:06.085Z,336.00
2018-11-07T02:08:05.725Z,360.00
2018-11-07T02:10:04.972Z,380.00
2018-11-07T02:11:02.680Z,388.00
2018-11-07T02:14:25.295Z,428.00
2018-11-07T02:15:25.234Z,424.00
2018-11-07T02:20:23.341Z,436.00
2018-11-07T02:21:26.343Z,436.00
2018-11-07T02:24:49.806Z,456.00
2018-11-07T02:25:48.202Z,456.00
2018-11-07T02:27:41.629Z,456.00
2018-11-07T02:28:41.566Z,464.00
2018-11-07T02:38:15.517Z,536.00
2018-11-07T02:39:16.045Z,532.00
2018-11-07T02:41:09.135Z,532.00
2018-11-07T02:42:09.187Z,528.00
2018-11-07T02:44:05.158Z,524.00
2018-11-07T02:46:32.744Z,500.00
2018-11-07T02:47:15.125Z,492.00
2018-11-07T02:49:08.506Z,488.00
2018-11-07T02:50:08.571Z,468.00
2018-11-07T02:59:50.324Z,444.00
2018-11-07T03:00:42.133Z,444.00
2018-11-07T03:02:35.460Z,424.00
2018-11-07T03:03:35.433Z,432.00
2018-11-07T03:07:03.976Z,468.00
2018-11-07T03:08:01.363Z,480.00
2018-11-07T03:10:13.465Z,476.00
2018-11-07T03:10:54.280Z,464.00
2018-11-07T03:15:52.373Z,424.00
2018-11-07T03:16:51.911Z,416.00
2018-11-07T03:20:23.205Z,392.00
2018-11-07T03:21:18.191Z,388.00
2018-11-07T03:24:42.717Z,384.00
2018-11-07T03:25:42.765Z,388.00
2018-11-07T03:27:36.494Z,376.00
2018-11-07T03:28:36.144Z,380.00
2018-11-07T03:30:46.866Z,376.00
2018-11-07T03:31:46.644Z,372.00
2018-11-07T03:33:40.589Z,376.00
2018-11-07T03:36:34.608Z,376.00
2018-11-07T03:37:32.928Z,376.00
2018-11-07T03:40:58.357Z,380.00
2018-11-07T03:41:58.704Z,384.00
2018-11-07T03:43:51.793Z,384.00
2018-11-07T03:44:51.592Z,384.00
2018-11-07T03:46:44.758Z,376.00
2018-11-07T03:47:45.093Z,384.00
2018-11-07T03:51:31.832Z,360.00
2018-11-07T03:52:10.532Z,352.00
2018-11-07T03:54:03.888Z,352.00
2018-11-07T03:55:03.867Z,352.00
2018-11-07T03:58:30.369Z,356.00
2018-11-07T03:59:29.394Z,356.00
2018-11-07T04:01:23.397Z,356.00
2018-11-07T04:02:23.114Z,356.00
2018-11-07T04:05:48.494Z,360.00
2018-11-07T04:06:48.864Z,356.00
2018-11-07T04:08:41.915Z,360.00
2018-11-07T04:09:41.886Z,352.00
2018-11-07T04:11:56.323Z,352.00
2018-11-07T04:14:28.738Z,344.00
2018-11-07T04:15:29.063Z,348.00
2018-11-07T04:26:03.976Z,364.00
2018-11-07T04:29:28.809Z,376.00
2018-11-07T04:30:28.746Z,384.00
2018-11-07T04:32:22.102Z,392.00
2018-11-07T04:33:22.076Z,392.00
2018-11-07T04:35:15.651Z,380.00
2018-11-07T04:36:16.022Z,384.00
2018-11-07T04:38:21.043Z,380.00
2018-11-07T04:39:09.031Z,380.00
2018-11-07T04:42:45.069Z,368.00
2018-11-07T04:47:28.863Z,348.00
2018-11-07T04:48:28.789Z,356.00
2018-11-07T04:55:24.418Z,356.00
2018-11-07T04:57:34.028Z,336.00
2018-11-07T04:58:26.989Z,332.00
2018-11-07T04:59:28.720Z,332.00
2018-11-07T05:00:24.820Z,332.00
2018-11-07T05:02:25.103Z,136.00
2018-11-07T05:20:56.751Z,332.00
2018-11-07T05:21:55.357Z,324.00
2018-11-07T05:24:09.363Z,332.00
2018-11-07T05:28:31.806Z,324.00
2018-11-07T05:31:28.943Z,316.00
2018-11-07T05:35:35.776Z,320.00
2018-11-07T05:37:39.857Z,316.00
2018-11-07T05:38:33.942Z,320.00
2018-11-07T05:40:29.658Z,308.00
2018-11-07T05:41:27.284Z,308.00
2018-11-07T05:42:27.478Z,308.00
2018-11-07T05:43:27.761Z,308.00
2018-11-07T05:44:27.287Z,304.00
2018-11-07T05:45:26.959Z,304.00
2018-11-07T05:46:27.889Z,304.00
2018-11-07T05:47:27.536Z,304.00
2018-11-07T05:48:28.094Z,300.00
2018-11-07T05:49:28.429Z,296.00
2018-11-07T05:50:28.721Z,296.00
2018-11-07T05:51:26.893Z,304.00
2018-11-07T05:52:29.778Z,300.00
2018-11-07T05:53:26.859Z,300.00
2018-11-07T05:54:26.838Z,300.00
2018-11-07T05:55:26.876Z,296.00
2018-11-07T05:56:27.537Z,300.00
2018-11-07T05:57:26.831Z,296.00
2018-11-07T05:58:26.925Z,300.00
2018-11-07T05:59:26.845Z,296.00
2018-11-07T06:00:26.821Z,300.00
2018-11-07T06:01:27.176Z,296.00
2018-11-07T06:02:26.802Z,300.00
2018-11-07T06:03:26.783Z,300.00
2018-11-07T06:04:27.587Z,300.00
2018-11-07T06:05:27.513Z,304.00
2018-11-07T06:06:27.112Z,304.00
2018-11-07T06:07:26.837Z,300.00
2018-11-07T06:08:26.788Z,304.00
2018-11-07T06:09:26.751Z,308.00
2018-11-07T06:10:26.786Z,304.00
2018-11-07T06:11:26.749Z,304.00
2018-11-07T06:12:27.084Z,304.00
2018-11-07T06:13:27.091Z,308.00
2018-11-07T06:14:26.755Z,312.00
2018-11-07T06:15:27.054Z,308.00
2018-11-07T06:16:26.710Z,308.00
2018-11-07T06:17:26.775Z,304.00
2018-11-07T06:18:27.053Z,304.00
2018-11-07T06:19:26.727Z,308.00
2018-11-07T06:20:26.691Z,308.00
2018-11-07T06:21:26.694Z,308.00
2018-11-07T06:22:26.673Z,304.00
2018-11-07T06:23:27.037Z,308.00
2018-11-07T06:24:27.072Z,308.00
2018-11-07T06:25:26.658Z,304.00
2018-11-07T06:26:26.646Z,300.00
2018-11-07T06:27:26.681Z,296.00
2018-11-07T06:28:26.983Z,296.00
2018-11-07T06:29:26.982Z,300.00
2018-11-07T06:30:26.666Z,300.00
2018-11-07T06:31:26.621Z,296.00
2018-11-07T06:32:26.664Z,292.00
2018-11-07T06:33:26.651Z,296.00
2018-11-07T06:34:26.631Z,292.00
2018-11-07T06:35:26.592Z,292.00
2018-11-07T06:36:26.944Z,292.00
2018-11-07T06:37:26.581Z,296.00
2018-11-07T06:38:26.620Z,296.00
2018-11-07T06:39:26.598Z,296.00
2018-11-07T06:40:26.557Z,296.00
2018-11-07T06:41:26.563Z,292.00
2018-11-07T06:42:26.898Z,292.00
2018-11-07T06:43:26.584Z,292.00
2018-11-07T06:44:26.564Z,288.00
2018-11-07T06:45:26.537Z,292.00
2018-11-07T06:46:26.534Z,292.00
2018-11-07T06:47:26.627Z,296.00
2018-11-07T06:48:26.590Z,296.00
2018-11-07T06:49:26.563Z,292.00
2018-11-07T06:50:26.891Z,292.00
2018-11-07T06:51:26.870Z,292.00
2018-11-07T06:52:26.877Z,296.00
2018-11-07T06:53:26.488Z,300.00
2018-11-07T06:54:26.848Z,292.00
2018-11-07T06:55:26.509Z,296.00
2018-11-07T06:56:26.468Z,296.00
2018-11-07T06:57:26.456Z,296.00
2018-11-07T06:58:26.482Z,288.00
2018-11-07T06:59:26.484Z,284.00
2018-11-07T07:00:26.477Z,284.00
2018-11-07T07:01:26.513Z,280.00
2018-11-07T07:02:26.805Z,280.00
2018-11-07T07:03:26.437Z,280.00
2018-11-07T07:04:26.413Z,280.00
2018-11-07T07:05:26.839Z,280.00
2018-11-07T07:06:26.449Z,276.00
2018-11-07T07:07:26.790Z,272.00
2018-11-07T07:08:26.394Z,272.00
2018-11-07T07:09:26.414Z,272.00
2018-11-07T07:10:26.385Z,268.00
2018-11-07T07:11:26.419Z,272.00
2018-11-07T07:12:26.757Z,268.00
2018-11-07T07:13:26.400Z,264.00
2018-11-07T07:14:26.388Z,272.00
2018-11-07T07:15:26.346Z,268.00
2018-11-07T07:16:26.336Z,264.00
2018-11-07T07:17:26.407Z,264.00
2018-11-07T07:18:26.344Z,264.00
2018-11-07T07:19:26.366Z,260.00
2018-11-07T07:20:26.357Z,264.00
2018-11-07T07:21:26.317Z,260.00
2018-11-07T07:22:26.690Z,260.00
2018-11-07T07:23:26.331Z,260.00
2018-11-07T07:24:26.294Z,260.00
2018-11-07T07:25:26.717Z,256.00
2018-11-07T07:26:26.319Z,260.00
2018-11-07T07:27:26.316Z,256.00
2018-11-07T07:28:26.344Z,256.00
2018-11-07T07:29:26.635Z,256.00
2018-11-07T07:30:26.385Z,252.00
2018-11-07T07:31:26.616Z,252.00
2018-11-07T07:32:26.272Z,256.00
2018-11-07T07:33:26.284Z,248.00
2018-11-07T07:34:26.234Z,252.00
2018-11-07T07:35:26.228Z,248.00
2018-11-07T07:36:26.588Z,244.00
2018-11-07T07:37:26.241Z,248.00
2018-11-07T07:38:26.543Z,248.00
2018-11-07T07:39:26.228Z,244.00
2018-11-07T07:40:26.191Z,248.00
2018-11-07T07:41:26.218Z,248.00
2018-11-07T07:42:26.562Z,248.00
2018-11-07T07:43:26.173Z,244.00
2018-11-07T07:44:26.170Z,248.00
2018-11-07T07:45:26.214Z,244.00
2018-11-07T07:46:26.170Z,244.00
2018-11-07T07:47:26.493Z,240.00
2018-11-07T07:48:26.498Z,244.00
2018-11-07T07:49:26.200Z,240.00
2018-11-07T07:50:26.473Z,240.00
2018-11-07T07:51:26.132Z,236.00
2018-11-07T07:52:26.181Z,240.00
2018-11-07T07:53:26.228Z,240.00
2018-11-07T07:54:26.153Z,240.00
2018-11-07T07:55:26.097Z,244.00
2018-11-07T07:56:26.168Z,236.00
2018-11-07T07:57:26.090Z,236.00
2018-11-07T07:58:26.078Z,236.00
2018-11-07T07:59:26.094Z,236.00
2018-11-07T08:00:26.440Z,236.00
2018-11-07T08:01:26.069Z,240.00
2018-11-07T08:02:26.094Z,240.00
2018-11-07T08:03:26.054Z,232.00
2018-11-07T08:04:26.069Z,232.00
2018-11-07T08:05:26.047Z,236.00
2018-11-07T08:06:26.040Z,228.00
2018-11-07T08:07:26.392Z,236.00
2018-11-07T08:08:26.053Z,236.00
2018-11-07T08:09:26.016Z,232.00
2018-11-07T08:10:26.659Z,232.00
2018-11-07T08:11:26.983Z,236.00
2018-11-07T08:12:26.004Z,236.00
2018-11-07T08:13:26.040Z,236.00
2018-11-07T08:14:26.348Z,232.00
2018-11-07T08:15:25.978Z,232.00
2018-11-07T08:16:25.977Z,232.00
2018-11-07T08:17:25.972Z,232.00
2018-11-07T08:18:25.995Z,232.00
2018-11-07T08:19:25.980Z,232.00
2018-11-07T08:20:26.315Z,232.00
2018-11-07T08:21:26.330Z,228.00
2018-11-07T08:22:26.006Z,228.00
2018-11-07T08:23:26.319Z,228.00
2018-11-07T08:24:25.938Z,228.00
2018-11-07T08:25:25.953Z,224.00
2018-11-07T08:26:25.918Z,228.00
2018-11-07T08:27:26.259Z,224.00
2018-11-07T08:28:26.031Z,224.00
2018-11-07T08:29:25.888Z,224.00
2018-11-07T08:30:25.890Z,216.00
2018-11-07T08:31:25.913Z,220.00
2018-11-07T08:32:26.243Z,220.00
2018-11-07T08:33:25.894Z,220.00
2018-11-07T08:34:25.938Z,220.00
2018-11-07T08:35:26.251Z,220.00
2018-11-07T08:36:25.849Z,220.00
2018-11-07T08:37:25.870Z,220.00
2018-11-07T08:38:25.899Z,216.00
2018-11-07T08:39:26.185Z,220.00
2018-11-07T08:40:26.173Z,216.00
2018-11-07T08:41:25.843Z,216.00
2018-11-07T08:42:25.928Z,216.00
2018-11-07T08:43:25.798Z,216.00
2018-11-07T08:44:25.796Z,216.00
2018-11-07T08:45:25.834Z,216.00
2018-11-07T08:46:25.798Z,216.00
2018-11-07T08:47:26.169Z,212.00
2018-11-07T08:48:25.781Z,212.00
2018-11-07T08:49:26.118Z,212.00
2018-11-07T08:50:26.141Z,212.00
2018-11-07T08:51:25.791Z,212.00
2018-11-07T08:52:25.795Z,212.00
2018-11-07T08:53:25.777Z,212.00
2018-11-07T08:54:26.071Z,212.00
2018-11-07T08:55:25.736Z,212.00
2018-11-07T08:56:25.730Z,212.00
2018-11-07T08:57:25.714Z,208.00
2018-11-07T08:58:25.751Z,208.00
2018-11-07T08:59:25.815Z,212.00
2018-11-07T09:00:25.769Z,208.00
2018-11-07T09:01:25.717Z,208.00
2018-11-07T09:02:26.034Z,208.00
2018-11-07T09:03:25.718Z,208.00
2018-11-07T09:04:26.064Z,208.00
2018-11-07T09:05:25.776Z,208.00
2018-11-07T09:06:25.664Z,208.00
2018-11-07T09:07:25.990Z,204.00
2018-11-07T09:08:25.685Z,208.00
2018-11-07T09:09:25.745Z,204.00
2018-11-07T09:10:25.665Z,204.00
2018-11-07T09:11:26.000Z,204.00
2018-11-07T09:12:25.649Z,204.00
2018-11-07T09:13:25.627Z,204.00
2018-11-07T09:14:25.720Z,200.00
2018-11-07T09:15:25.969Z,200.00
2018-11-07T09:16:25.645Z,204.00
2018-11-07T09:17:25.631Z,204.00
2018-11-07T09:18:25.669Z,200.00
2018-11-07T09:19:25.590Z,196.00
2018-11-07T09:20:25.649Z,200.00
2018-11-07T09:21:25.597Z,196.00
2018-11-07T09:22:25.670Z,196.00
2018-11-07T09:23:25.557Z,200.00
2018-11-07T09:24:25.632Z,196.00
2018-11-07T09:25:25.575Z,196.00
2018-11-07T09:26:25.537Z,200.00
2018-11-07T09:27:25.900Z,200.00
2018-11-07T09:28:25.533Z,196.00
2018-11-07T09:29:25.591Z,196.00
2018-11-07T09:30:25.898Z,200.00
2018-11-07T09:31:25.840Z,196.00
2018-11-07T09:32:25.868Z,196.00
2018-11-07T09:33:25.487Z,200.00
2018-11-07T09:34:25.481Z,196.00
2018-11-07T09:35:25.520Z,200.00
2018-11-07T09:36:25.479Z,196.00
2018-11-07T09:37:25.507Z,200.00
2018-11-07T09:38:25.460Z,200.00
2018-11-07T09:39:25.850Z,196.00
2018-11-07T09:40:25.477Z,200.00
2018-11-07T09:41:25.448Z,196.00
2018-11-07T09:42:25.439Z,196.00
2018-11-07T09:43:25.455Z,200.00
2018-11-07T09:44:25.478Z,196.00
2018-11-07T09:45:25.763Z,200.00
2018-11-07T09:46:25.449Z,200.00
2018-11-07T09:47:25.612Z,200.00
2018-11-07T09:48:25.775Z,196.00
2018-11-07T09:49:25.519Z,200.00
2018-11-07T09:50:25.428Z,196.00
2018-11-07T09:51:25.411Z,196.00
2018-11-07T09:52:25.843Z,196.00
2018-11-07T09:53:25.701Z,196.00
2018-11-07T09:54:25.809Z,200.00
2018-11-07T09:55:25.673Z,200.00
2018-11-07T09:56:26.088Z,196.00
2018-11-07T09:57:25.724Z,200.00
2018-11-07T09:58:25.841Z,196.00
2018-11-07T09:59:25.613Z,200.00
2018-11-07T10:00:25.912Z,196.00
2018-11-07T10:01:25.772Z,200.00
2018-11-07T10:02:25.790Z,196.00
2018-11-07T10:03:25.393Z,196.00
2018-11-07T10:04:25.466Z,200.00
2018-11-07T10:05:26.034Z,200.00
2018-11-07T10:06:25.705Z,200.00
2018-11-07T10:07:25.351Z,200.00
2018-11-07T10:08:25.646Z,200.00
2018-11-07T10:09:25.610Z,196.00
2018-11-07T10:10:25.301Z,196.00
2018-11-07T10:11:25.594Z,196.00
2018-11-07T10:12:25.373Z,196.00
2018-11-07T10:13:25.319Z,196.00
2018-11-07T10:14:25.474Z,196.00
2018-11-07T10:15:26.141Z,196.00
2018-11-07T10:16:25.690Z,196.00
2018-11-07T10:17:25.628Z,196.00
2018-11-07T10:18:25.336Z,196.00
2018-11-07T10:19:25.673Z,200.00
2018-11-07T10:20:25.335Z,196.00
2018-11-07T10:21:25.292Z,196.00
2018-11-07T10:22:25.224Z,200.00
2018-11-07T10:23:25.220Z,196.00
2018-11-07T10:24:25.205Z,196.00
2018-11-07T10:25:25.202Z,196.00
2018-11-07T10:26:25.181Z,196.00
2018-11-07T10:27:25.557Z,200.00
2018-11-07T10:28:25.801Z,196.00
2018-11-07T10:29:26.089Z,200.00
2018-11-07T10:30:25.377Z,196.00
2018-11-07T10:31:25.586Z,196.00
2018-11-07T10:32:25.129Z,200.00
2018-11-07T10:33:25.201Z,196.00
2018-11-07T10:34:25.535Z,196.00
2018-11-07T10:35:25.114Z,196.00
2018-11-07T10:36:25.463Z,196.00
2018-11-07T10:37:32.260Z,200.00
2018-11-07T10:38:25.185Z,200.00
2018-11-07T10:39:25.424Z,200.00
2018-11-07T10:40:25.102Z,200.00
2018-11-07T10:41:25.072Z,200.00
2018-11-07T10:42:25.723Z,200.00
2018-11-07T10:43:25.444Z,204.00
2018-11-07T10:44:25.141Z,204.00
2018-11-07T10:45:25.038Z,200.00
2018-11-07T10:46:25.045Z,204.00
2018-11-07T10:47:25.079Z,196.00
2018-11-07T10:48:25.065Z,200.00
2018-11-07T10:49:25.047Z,200.00
2018-11-07T10:50:25.045Z,200.00
2018-11-07T10:51:25.007Z,200.00
2018-11-07T10:52:25.050Z,200.00
2018-11-07T10:53:25.005Z,200.00
2018-11-07T10:54:25.023Z,200.00
2018-11-07T10:55:24.982Z,200.00
2018-11-07T10:56:25.182Z,200.00
2018-11-07T10:57:25.747Z,204.00
2018-11-07T10:58:25.001Z,200.00
2018-11-07T10:59:25.013Z,196.00
2018-11-07T11:00:24.949Z,196.00
2018-11-07T11:01:25.509Z,196.00
2018-11-07T11:02:24.932Z,196.00
2018-11-07T11:03:24.974Z,200.00
2018-11-07T11:04:25.228Z,196.00
2018-11-07T11:05:26.135Z,196.00
2018-11-07T11:06:25.363Z,196.00
2018-11-07T11:07:25.054Z,196.00
2018-11-07T11:08:24.911Z,196.00
2018-11-07T11:09:25.739Z,200.00
2018-11-07T11:10:25.851Z,196.00
2018-11-07T11:11:25.935Z,196.00
2018-11-07T11:12:25.221Z,196.00
2018-11-07T11:13:24.933Z,196.00
2018-11-07T11:14:24.869Z,200.00
2018-11-07T11:15:24.856Z,196.00
2018-11-07T11:16:24.851Z,196.00
2018-11-07T11:17:24.984Z,196.00
2018-11-07T11:18:24.869Z,196.00
2018-11-07T11:19:24.839Z,200.00
2018-11-07T11:20:24.972Z,196.00
2018-11-07T11:21:25.009Z,200.00
2018-11-07T11:22:24.871Z,196.00
2018-11-07T11:23:25.195Z,200.00
2018-11-07T11:24:24.887Z,196.00
2018-11-07T11:25:25.178Z,200.00
2018-11-07T11:26:25.228Z,196.00
2018-11-07T11:27:24.911Z,196.00
2018-11-07T11:28:24.879Z,200.00
2018-11-07T11:29:24.912Z,196.00
2018-11-07T11:30:24.874Z,196.00
2018-11-07T11:31:24.778Z,200.00
2018-11-07T11:32:25.089Z,200.00
2018-11-07T11:33:24.745Z,196.00
2018-11-07T11:34:24.807Z,196.00
2018-11-07T11:35:24.774Z,196.00
2018-11-07T11:36:24.772Z,200.00
2018-11-07T11:37:25.113Z,200.00
2018-11-07T11:38:24.715Z,200.00
2018-11-07T11:39:25.113Z,196.00
2018-11-07T11:40:25.058Z,196.00
2018-11-07T11:41:24.830Z,196.00
2018-11-07T11:42:24.720Z,196.00
2018-11-07T11:43:24.727Z,196.00
2018-11-07T11:44:25.026Z,196.00
2018-11-07T11:45:24.734Z,196.00
2018-11-07T11:46:24.762Z,196.00
2018-11-07T11:47:25.020Z,200.00
2018-11-07T11:48:24.696Z,196.00
2018-11-07T11:49:24.674Z,196.00
2018-11-07T11:50:24.713Z,200.00
2018-11-07T11:51:24.683Z,196.00
2018-11-07T11:52:24.639Z,200.00
2018-11-07T11:53:24.618Z,196.00
2018-11-07T11:54:24.681Z,196.00
2018-11-07T11:55:24.778Z,200.00
2018-11-07T11:56:24.601Z,200.00
2018-11-07T11:57:24.646Z,196.00
2018-11-07T11:58:24.954Z,196.00
2018-11-07T11:59:25.063Z,200.00
2018-11-07T12:00:24.611Z,200.00
2018-11-07T12:01:24.596Z,200.00
2018-11-07T12:02:24.846Z,200.00
2018-11-07T12:03:24.553Z,200.00
2018-11-07T12:04:25.119Z,200.00
2018-11-07T12:05:24.906Z,204.00
2018-11-07T12:06:24.940Z,200.00
2018-11-07T12:07:24.572Z,200.00
2018-11-07T12:08:24.582Z,200.00
2018-11-07T12:09:24.556Z,200.00
2018-11-07T12:10:25.224Z,204.00
2018-11-07T12:11:24.860Z,200.00
2018-11-07T12:12:25.373Z,204.00
2018-11-07T12:13:25.322Z,204.00
2018-11-07T12:14:24.794Z,200.00
2018-11-07T12:15:24.594Z,200.00
2018-11-07T12:16:24.523Z,200.00
2018-11-07T12:17:24.577Z,204.00
2018-11-07T12:18:24.493Z,200.00
2018-11-07T12:19:24.490Z,200.00
2018-11-07T12:20:24.789Z,200.00
2018-11-07T12:21:24.477Z,200.00
2018-11-07T12:22:24.980Z,200.00
2018-11-07T12:23:24.528Z,196.00
2018-11-07T12:24:24.596Z,200.00
2018-11-07T12:25:24.890Z,200.00
2018-11-07T12:26:24.465Z,200.00
2018-11-07T12:27:24.788Z,200.00
2018-11-07T12:28:24.876Z,200.00
2018-11-07T12:29:24.385Z,200.00
2018-11-07T12:30:24.544Z,200.00
2018-11-07T12:31:24.751Z,196.00
2018-11-07T12:32:24.964Z,200.00
2018-11-07T12:33:24.465Z,200.00
2018-11-07T12:34:24.726Z,196.00
2018-11-07T12:35:24.427Z,196.00
2018-11-07T12:36:24.743Z,200.00
2018-11-07T12:37:24.474Z,200.00
2018-11-07T12:38:24.577Z,204.00
2018-11-07T12:39:24.438Z,204.00
2018-11-07T12:40:24.696Z,204.00
2018-11-07T12:41:24.326Z,204.00
2018-11-07T12:42:25.218Z,200.00
2018-11-07T12:43:24.294Z,204.00
2018-11-07T12:44:24.385Z,200.00
2018-11-07T12:45:24.371Z,204.00
2018-11-07T12:46:24.792Z,204.00
2018-11-07T12:47:24.854Z,200.00
2018-11-07T12:48:24.677Z,204.00
2018-11-07T12:49:24.918Z,204.00
2018-11-07T12:50:25.033Z,204.00
2018-11-07T12:51:24.568Z,204.00
2018-11-07T12:52:24.801Z,200.00
2018-11-07T12:53:24.309Z,204.00
2018-11-07T12:54:24.765Z,204.00
2018-11-07T12:55:24.260Z,200.00
2018-11-07T12:56:24.582Z,200.00
2018-11-07T12:57:24.669Z,204.00
2018-11-07T12:58:24.351Z,204.00
2018-11-07T12:59:24.293Z,204.00
2018-11-07T13:00:24.211Z,204.00
2018-11-07T13:01:24.190Z,200.00
2018-11-07T13:02:24.379Z,196.00
2018-11-07T13:03:24.225Z,200.00
2018-11-07T13:04:24.288Z,200.00
2018-11-07T13:05:24.873Z,204.00
2018-11-07T13:06:24.838Z,204.00
2018-11-07T13:07:24.440Z,204.00
2018-11-07T13:08:24.461Z,204.00
2018-11-07T13:09:25.225Z,204.00
2018-11-07T13:10:25.159Z,204.00
2018-11-07T13:11:25.327Z,200.00
2018-11-07T13:12:27.183Z,204.00
2018-11-07T13:13:24.322Z,200.00
2018-11-07T13:14:24.549Z,200.00
2018-11-07T13:15:24.728Z,204.00
2018-11-07T13:16:24.525Z,204.00
2018-11-07T13:17:24.504Z,200.00
2018-11-07T13:18:24.446Z,200.00
2018-11-07T13:19:24.313Z,204.00
2018-11-07T13:20:24.144Z,200.00
2018-11-07T13:21:24.645Z,200.00
2018-11-07T13:22:24.463Z,196.00
2018-11-07T13:23:24.563Z,196.00
2018-11-07T13:24:24.378Z,196.00
2018-11-07T13:25:24.253Z,204.00
2018-11-07T13:26:24.224Z,200.00
2018-11-07T13:27:24.432Z,204.00
2018-11-07T13:28:24.178Z,204.00
2018-11-07T13:29:24.622Z,0.00
2018-11-07T13:30:24.521Z,0.00
2018-11-07T13:31:23.987Z,0.00
2018-11-07T13:32:24.384Z,0.00
2018-11-07T13:33:24.360Z,0.00
2018-11-07T13:34:24.618Z,0.00
2018-11-07T13:35:24.016Z,0.00
2018-11-07T13:36:24.442Z,0.00
2018-11-07T13:37:24.230Z,0.00
2018-11-07T13:38:24.325Z,0.00
2018-11-07T13:39:23.973Z,0.00
2018-11-07T13:40:24.460Z,0.00
2018-11-07T13:41:23.960Z,0.00
2018-11-07T13:42:23.925Z,0.00
2018-11-07T13:43:23.925Z,0.00
2018-11-07T13:44:23.931Z,0.00
2018-11-07T13:45:24.330Z,0.00
2018-11-07T13:46:24.330Z,0.00
2018-11-07T13:47:23.943Z,0.00
2018-11-07T13:48:23.999Z,0.00
2018-11-07T13:49:24.698Z,0.00
2018-11-07T13:50:24.100Z,0.00
2018-11-07T13:51:24.128Z,0.00
2018-11-07T13:52:24.258Z,0.00
2018-11-07T13:53:23.918Z,0.00
2018-11-07T13:54:24.250Z,0.00
2018-11-07T13:55:24.148Z,0.00
2018-11-07T13:56:24.212Z,0.00
2018-11-07T13:57:23.876Z,0.00
2018-11-07T13:58:24.308Z,0.00
2018-11-07T13:59:23.848Z,0.00
2018-11-07T14:00:23.966Z,0.00
2018-11-07T14:01:23.927Z,0.00
2018-11-07T14:02:24.178Z,0.00
2018-11-07T14:03:24.083Z,0.00
2018-11-07T14:04:23.840Z,0.00
2018-11-07T14:05:24.623Z,0.00
2018-11-07T14:06:23.802Z,0.00
2018-11-07T14:07:23.833Z,0.00
2018-11-07T14:08:24.167Z,0.00
2018-11-07T14:09:24.154Z,0.00
2018-11-07T14:10:23.781Z,0.00
2018-11-07T14:11:23.778Z,0.00
2018-11-07T14:12:24.375Z,0.00
2018-11-07T14:13:24.070Z,0.00
2018-11-07T14:14:24.283Z,0.00
2018-11-07T14:15:24.597Z,0.00
2018-11-07T14:16:24.149Z,0.00
2018-11-07T14:17:23.756Z,0.00
2018-11-07T14:18:24.441Z,0.00
2018-11-07T14:19:24.565Z,0.00
2018-11-07T14:20:23.786Z,0.00
2018-11-07T14:21:24.062Z,0.00
2018-11-07T14:22:24.579Z,0.00
2018-11-07T14:23:24.012Z,0.00
2018-11-07T14:24:24.196Z,0.00
2018-11-07T14:25:23.694Z,0.00
2018-11-07T14:26:23.997Z,0.00
2018-11-07T14:27:24.044Z,0.00
2018-11-07T14:28:24.196Z,0.00
2018-11-07T14:29:24.260Z,0.00
2018-11-07T14:30:24.236Z,0.00
2018-11-07T14:31:24.159Z,0.00
2018-11-07T14:32:23.645Z,0.00
2018-11-07T14:33:24.095Z,0.00
2018-11-07T14:34:24.120Z,0.00
2018-11-07T14:35:24.016Z,0.00
2018-11-07T14:36:23.713Z,0.00
2018-11-07T14:37:24.023Z,0.00
2018-11-07T14:38:23.928Z,0.00
2018-11-07T14:39:23.716Z,0.00
2018-11-07T14:40:23.651Z,0.00
2018-11-07T14:41:23.809Z,0.00
2018-11-07T14:42:24.304Z,0.00
2018-11-07T14:43:23.644Z,0.00
2018-11-07T14:44:24.117Z,0.00
2018-11-07T14:45:24.000Z,0.00
2018-11-07T14:46:24.015Z,0.00
2018-11-07T14:47:23.904Z,0.00
2018-11-07T14:48:23.933Z,0.00
2018-11-07T14:49:23.615Z,0.00
2018-11-07T14:50:23.529Z,0.00
2018-11-07T14:51:23.588Z,0.00
2018-11-07T14:52:23.683Z,0.00
2018-11-07T14:53:23.555Z,0.00
2018-11-07T14:54:23.704Z,0.00
2018-11-07T14:55:23.518Z,0.00
2018-11-07T14:56:23.793Z,0.00
2018-11-07T14:57:26.857Z,0.00
2018-11-07T14:58:23.591Z,0.00
2018-11-07T14:59:23.442Z,0.00
2018-11-07T15:00:23.927Z,0.00
2018-11-07T15:01:24.019Z,0.00
2018-11-07T15:02:23.502Z,0.00
2018-11-07T15:03:24.009Z,0.00
2018-11-07T15:04:23.981Z,0.00
2018-11-07T15:05:23.917Z,0.00
2018-11-07T15:06:23.383Z,0.00
2018-11-07T15:07:23.975Z,0.00
2018-11-07T15:08:23.859Z,0.00
2018-11-07T15:09:24.621Z,0.00
2018-11-07T15:10:23.780Z,0.00
2018-11-07T15:11:23.853Z,0.00
2018-11-07T15:12:35.982Z,0.00
2018-11-07T15:13:23.613Z,0.00
2018-11-07T15:14:23.396Z,0.00
2018-11-07T15:15:23.337Z,0.00
2018-11-07T15:16:23.753Z,0.00
2018-11-07T15:17:23.884Z,0.00
2018-11-07T15:18:23.818Z,0.00
2018-11-07T15:19:23.339Z,0.00
2018-11-07T15:20:23.329Z,0.00
2018-11-07T15:21:23.575Z,0.00
2018-11-07T15:22:23.644Z,0.00
2018-11-07T15:23:23.300Z,0.00
2018-11-07T15:24:23.275Z,0.00
2018-11-07T15:25:23.609Z,0.00
2018-11-07T15:26:23.569Z,0.00
2018-11-07T15:27:23.765Z,0.00
2018-11-07T15:28:23.333Z,0.00
2018-11-07T15:29:23.248Z,0.00
2018-11-07T15:30:23.767Z,0.00
2018-11-07T15:31:23.708Z,0.00
2018-11-07T15:32:23.253Z,0.00
2018-11-07T15:33:23.639Z,0.00
2018-11-07T15:34:23.765Z,0.00
2018-11-07T15:35:23.254Z,0.00
2018-11-07T15:36:23.301Z,0.00
2018-11-07T15:37:23.316Z,0.00
2018-11-07T15:38:23.197Z,0.00
2018-11-07T15:39:23.589Z,0.00
2018-11-07T15:40:23.885Z,0.00
2018-11-07T15:41:23.198Z,0.00
2018-11-07T15:42:23.227Z,0.00
2018-11-07T15:43:23.224Z,0.00
2018-11-07T15:44:23.518Z,0.00
2018-11-07T15:45:23.390Z,0.00
2018-11-07T15:46:23.555Z,0.00
2018-11-07T15:47:23.207Z,0.00
2018-11-07T15:48:23.461Z,0.00
2018-11-07T15:49:23.133Z,0.00
2018-11-07T15:50:23.451Z,0.00
2018-11-07T15:51:23.133Z,0.00
2018-11-07T15:52:23.195Z,0.00
2018-11-07T15:53:23.093Z,0.00
2018-11-07T15:54:23.597Z,0.00
2018-11-07T15:55:23.156Z,0.00
2018-11-07T15:56:23.133Z,0.00
2018-11-07T15:57:23.402Z,0.00
2018-11-07T15:58:23.255Z,0.00
2018-11-07T15:59:23.051Z,0.00
2018-11-07T16:00:23.053Z,0.00
2018-11-07T16:01:23.037Z,0.00
2018-11-07T16:02:23.082Z,0.00
2018-11-07T16:03:23.569Z,0.00
2018-11-07T16:04:23.369Z,0.00
2018-11-07T16:05:23.101Z,0.00
2018-11-07T16:06:23.092Z,0.00
2018-11-07T16:07:23.007Z,0.00
2018-11-07T16:08:23.220Z,0.00
2018-11-07T16:09:23.517Z,0.00
2018-11-07T16:10:23.110Z,0.00
2018-11-07T16:11:22.977Z,0.00
2018-11-07T16:12:23.019Z,0.00
2018-11-07T16:13:24.013Z,0.00